Time;durP1;ratioP1;P1;durP2;ratioP2;P2;SDS_P1;SDS_P2;PMS_P1;PMS_P2;Temp;Humidity;BMP_temperature;BMP_pressure;BME280_temperature;BME280_humidity;BME280_pressure;Samples;Min_cycle;Max_cycle;Signal;HPM_P1;HPM_P2
2022/11/14 00:02:14;;;;;;;19.63;15.77;;;;;;;;;;5073652;28;20086;-84
2022/11/14 00:04:40;;;;;;;19.50;15.07;;;;;;;;;;5073599;28;20019;-81
2022/11/14 00:07:07;;;;;;;18.13;14.77;;;;;;;;;;5073664;28;20373;-81
2022/11/14 00:09:33;;;;;;;21.38;16.40;;;;;;;;;;5073783;28;20036;-85
2022/11/14 00:11:59;;;;;;;21.35;17.23;;;;;;;;;;5073728;28;20025;-83
2022/11/14 00:14:25;;;;;;;20.73;16.50;;;;;;;;;;5073661;28;20089;-83
2022/11/14 00:16:51;;;;;;;23.92;17.60;;;;;;;;;;5073486;28;20024;-86
2022/11/14 00:19:17;;;;;;;24.02;18.27;;;;;;;;;;5073640;28;20021;-82
2022/11/14 00:21:43;;;;;;;20.48;16.13;;;;;;;;;;5073342;28;20024;-82
2022/11/14 00:24:09;;;;;;;21.42;16.98;;;;;;;;;;5073444;28;20029;-84
2022/11/14 00:26:35;;;;;;;20.98;16.60;;;;;;;;;;5073383;28;20025;-80
2022/11/14 00:29:01;;;;;;;18.08;14.55;;;;;;;;;;5073259;28;20048;-83
2022/11/14 00:31:27;;;;;;;23.23;17.90;;;;;;;;;;5073465;28;20044;-84
2022/11/14 00:33:53;;;;;;;23.75;17.27;;;;;;;;;;5074285;28;20023;-84
2022/11/14 00:36:20;;;;;;;22.23;17.27;;;;;;;;;;5077132;28;20092;-81
2022/11/14 00:38:46;;;;;;;24.33;16.95;;;;;;;;;;5077352;28;20024;-85
2022/11/14 00:41:12;;;;;;;20.70;17.20;;;;;;;;;;5076843;28;20468;-81
2022/11/14 00:43:38;;;;;;;18.67;16.02;;;;;;;;;;5077031;28;20032;-83
2022/11/14 00:46:04;;;;;;;20.83;15.65;;;;;;;;;;5076912;28;20029;-84
2022/11/14 00:48:30;;;;;;;18.90;14.82;;;;;;;;;;5077107;28;20165;-82
2022/11/14 00:50:56;;;;;;;18.25;15.35;;;;;;;;;;5077073;28;20031;-82
2022/11/14 00:53:22;;;;;;;18.45;14.48;;;;;;;;;;5077026;28;20069;-84
2022/11/14 00:55:48;;;;;;;18.45;13.85;;;;;;;;;;5076843;28;20024;-83
2022/11/14 00:58:14;;;;;;;20.67;13.82;;;;;;;;;;5058811;28;20417;-81
2022/11/14 01:00:41;;;;;;;19.98;13.32;;;;;;;;;;5058598;28;20075;-82
2022/11/14 01:03:07;;;;;;;17.90;14.65;;;;;;;;;;5076864;28;20024;-85
2022/11/14 01:05:33;;;;;;;18.58;14.23;;;;;;;;;;5076739;28;20036;-83
2022/11/14 01:07:59;;;;;;;18.73;14.55;;;;;;;;;;5076735;28;20028;-85
2022/11/14 01:10:25;;;;;;;20.15;15.20;;;;;;;;;;5076694;28;20016;-83
2022/11/14 01:12:51;;;;;;;20.80;16.98;;;;;;;;;;5076415;28;20029;-81
2022/11/14 01:15:17;;;;;;;20.50;16.70;;;;;;;;;;5076453;28;20025;-83
2022/11/14 01:17:43;;;;;;;20.25;15.23;;;;;;;;;;5058560;28;20102;-83
2022/11/14 01:20:09;;;;;;;21.13;16.35;;;;;;;;;;5076744;28;20103;-85
2022/11/14 01:22:35;;;;;;;19.80;14.63;;;;;;;;;;5058544;28;20111;-84
2022/11/14 01:25:01;;;;;;;20.08;15.50;;;;;;;;;;5058417;28;20066;-83
2022/11/14 01:27:30;;;;;;;17.42;13.20;;;;;;;;;;5058403;28;20115;-83
2022/11/14 01:29:56;;;;;;;27.52;16.33;;;;;;;;;;5076273;28;20455;-86
2022/11/14 01:32:22;;;;;;;19.63;15.35;;;;;;;;;;5076405;28;20028;-84
2022/11/14 01:34:49;;;;;;;19.80;15.45;;;;;;;;;;5076308;28;20032;-85
2022/11/14 01:37:15;;;;;;;17.73;14.68;;;;;;;;;;5076133;28;20028;-81
2022/11/14 01:39:41;;;;;;;20.58;16.42;;;;;;;;;;5076213;28;20025;-79
2022/11/14 01:42:07;;;;;;;19.40;15.55;;;;;;;;;;5076280;28;20106;-86
2022/11/14 01:44:46;;;;;;;22.13;15.38;;;;;;;;;;5076155;28;20031;-79
2022/11/14 01:47:16;;;;;;;19.13;14.68;;;;;;;;;;5057577;28;20383;-85
2022/11/14 01:49:43;;;;;;;21.23;16.80;;;;;;;;;;5076127;28;20111;-82
2022/11/14 01:52:17;;;;;;;17.95;15.77;;;;;;;;;;5075998;28;20021;-81
2022/11/14 01:54:48;;;;;;;18.73;14.32;;;;;;;;;;5075935;28;20028;-85
2022/11/14 01:57:16;;;;;;;18.20;15.35;;;;;;;;;;5075865;28;20103;-81
2022/11/14 01:59:44;;;;;;;19.02;14.98;;;;;;;;;;5054259;28;20142;-83
2022/11/14 02:02:13;;;;;;;21.77;16.40;;;;;;;;;;5056156;28;20033;-87
2022/11/14 02:04:42;;;;;;;23.48;16.27;;;;;;;;;;5055698;28;20096;-83
2022/11/14 02:07:09;;;;;;;21.27;16.00;;;;;;;;;;5055790;28;20453;-82
2022/11/14 02:09:36;;;;;;;19.00;15.45;;;;;;;;;;5054486;28;20028;-87
2022/11/14 02:12:04;;;;;;;18.58;14.70;;;;;;;;;;5055737;28;20025;-86
2022/11/14 02:14:32;;;;;;;20.27;14.98;;;;;;;;;;5055829;28;20404;-82
2022/11/14 02:16:58;;;;;;;22.30;15.45;;;;;;;;;;5055403;28;20021;-87
2022/11/14 02:19:24;;;;;;;16.83;13.82;;;;;;;;;;5054240;28;20024;-83
2022/11/14 02:21:50;;;;;;;18.08;14.60;;;;;;;;;;5055366;28;20029;-85
2022/11/14 02:24:16;;;;;;;16.75;14.40;;;;;;;;;;5055485;28;20017;-85
2022/11/14 02:26:42;;;;;;;19.05;14.68;;;;;;;;;;5055525;28;20489;-80
2022/11/14 02:29:10;;;;;;;20.23;14.77;;;;;;;;;;5056414;28;20028;-86
2022/11/14 02:31:36;;;;;;;18.17;14.60;;;;;;;;;;5055782;28;20074;-84
2022/11/14 02:34:02;;;;;;;18.90;14.68;;;;;;;;;;5055318;28;20483;-83
2022/11/14 02:36:28;;;;;;;19.33;14.57;;;;;;;;;;5055278;28;20108;-86
2022/11/14 02:38:54;;;;;;;19.25;15.18;;;;;;;;;;5055156;28;20044;-86
2022/11/14 02:41:20;;;;;;;21.63;14.07;;;;;;;;;;5055153;28;20502;-83
2022/11/14 02:43:46;;;;;;;19.23;14.82;;;;;;;;;;5054937;28;20087;-82
2022/11/14 02:46:12;;;;;;;21.58;15.65;;;;;;;;;;5054800;28;20043;-83
2022/11/14 02:48:38;;;;;;;23.83;16.48;;;;;;;;;;5054840;28;20051;-86
2022/11/14 02:51:05;;;;;;;20.52;15.60;;;;;;;;;;5054839;28;20052;-85
2022/11/14 02:53:31;;;;;;;21.30;15.35;;;;;;;;;;5054765;28;20034;-86
2022/11/14 02:55:57;;;;;;;26.13;16.77;;;;;;;;;;5054600;28;20021;-82
2022/11/14 02:58:23;;;;;;;20.35;15.75;;;;;;;;;;5054612;28;20029;-85
2022/11/14 03:00:49;;;;;;;23.70;15.73;;;;;;;;;;5074498;28;20484;-87
2022/11/14 03:03:15;;;;;;;19.80;15.43;;;;;;;;;;5074698;28;20041;-84
2022/11/14 03:05:41;;;;;;;18.45;14.35;;;;;;;;;;5074576;28;20025;-80
2022/11/14 03:08:07;;;;;;;21.08;14.80;;;;;;;;;;5074580;28;20406;-84
2022/11/14 03:10:33;;;;;;;21.52;15.70;;;;;;;;;;5074646;28;20025;-82
2022/11/14 03:12:59;;;;;;;20.33;15.65;;;;;;;;;;5074508;28;20016;-81
2022/11/14 03:15:25;;;;;;;21.85;17.63;;;;;;;;;;5074572;28;20550;-88
2022/11/14 03:17:51;;;;;;;25.38;18.17;;;;;;;;;;5074517;28;20027;-80
2022/11/14 03:20:18;;;;;;;23.60;18.45;;;;;;;;;;5074328;28;20029;-86
2022/11/14 03:22:44;;;;;;;23.83;18.00;;;;;;;;;;5074303;28;20427;-84
2022/11/14 03:25:10;;;;;;;25.60;19.33;;;;;;;;;;5074276;28;20028;-86
2022/11/14 03:27:36;;;;;;;21.17;17.02;;;;;;;;;;5056133;28;20028;-86
2022/11/14 03:30:02;;;;;;;24.13;17.58;;;;;;;;;;5074041;28;20027;-80
2022/11/14 03:32:28;;;;;;;23.30;17.30;;;;;;;;;;5073972;28;20016;-87
2022/11/14 03:34:54;;;;;;;20.92;16.70;;;;;;;;;;5056110;28;20032;-79
2022/11/14 03:37:20;;;;;;;23.10;16.75;;;;;;;;;;5056141;28;20024;-84
2022/11/14 03:39:46;;;;;;;22.33;16.73;;;;;;;;;;5073917;28;20493;-82
2022/11/14 03:42:12;;;;;;;22.13;16.83;;;;;;;;;;5073962;28;20029;-85
2022/11/14 03:44:39;;;;;;;20.58;15.60;;;;;;;;;;5073963;28;20032;-86
2022/11/14 03:47:05;;;;;;;21.40;16.30;;;;;;;;;;5055837;28;20033;-83
2022/11/14 03:49:31;;;;;;;23.40;17.52;;;;;;;;;;5073787;28;20036;-83
2022/11/14 03:51:57;;;;;;;22.17;16.95;;;;;;;;;;5073982;28;20028;-83
2022/11/14 03:54:23;;;;;;;18.33;14.45;;;;;;;;;;5073715;28;20467;-83
2022/11/14 03:56:49;;;;;;;20.73;15.25;;;;;;;;;;5073651;28;20028;-83
2022/11/14 03:59:15;;;;;;;19.08;15.85;;;;;;;;;;5055531;28;20135;-86
2022/11/14 04:01:41;;;;;;;19.95;14.73;;;;;;;;;;5073781;28;20079;-84
2022/11/14 04:04:07;;;;;;;18.10;13.98;;;;;;;;;;5073688;28;20440;-82
2022/11/14 04:06:33;;;;;;;17.90;14.18;;;;;;;;;;5073708;28;20028;-84
2022/11/14 04:09:00;;;;;;;20.73;15.50;;;;;;;;;;5073092;28;20017;-87
2022/11/14 04:11:26;;;;;;;21.92;14.77;;;;;;;;;;5073644;28;20380;-82
2022/11/14 04:13:52;;;;;;;22.17;14.75;;;;;;;;;;5073873;28;20043;-83
2022/11/14 04:16:18;;;;;;;20.27;15.80;;;;;;;;;;5055614;28;20035;-84
2022/11/14 04:18:44;;;;;;;23.73;15.65;;;;;;;;;;5073512;28;20060;-87
2022/11/14 04:21:10;;;;;;;24.40;16.40;;;;;;;;;;5055636;28;20468;-83
2022/11/14 04:23:36;;;;;;;25.52;15.65;;;;;;;;;;5073593;28;20024;-81
2022/11/14 04:26:02;;;;;;;20.00;15.15;;;;;;;;;;5073331;28;20029;-80
2022/11/14 04:28:28;;;;;;;21.10;16.08;;;;;;;;;;5073425;28;20021;-85
2022/11/14 04:30:54;;;;;;;18.80;14.52;;;;;;;;;;5073416;28;20068;-80
2022/11/14 04:33:21;;;;;;;20.83;15.75;;;;;;;;;;5073215;28;20024;-83
2022/11/14 04:35:47;;;;;;;23.73;16.52;;;;;;;;;;5073216;28;20031;-84
2022/11/14 04:38:13;;;;;;;20.85;15.60;;;;;;;;;;5055334;28;20052;-86
2022/11/14 04:40:39;;;;;;;21.88;15.65;;;;;;;;;;5073345;28;20044;-81
2022/11/14 04:43:06;;;;;;;22.95;17.55;;;;;;;;;;5073314;28;20063;-82
2022/11/14 04:45:32;;;;;;;21.65;16.20;;;;;;;;;;5073196;28;20056;-80
2022/11/14 04:47:58;;;;;;;22.92;16.13;;;;;;;;;;5072378;28;20032;-82
2022/11/14 04:50:24;;;;;;;22.10;17.05;;;;;;;;;;5055022;28;20446;-85
2022/11/14 04:52:52;;;;;;;26.20;18.30;;;;;;;;;;5054911;28;20107;-85
2022/11/14 04:55:18;;;;;;;28.75;19.42;;;;;;;;;;5092310;28;20463;-83
2022/11/14 04:57:44;;;;;;;23.70;17.70;;;;;;;;;;5089203;28;20024;-83
2022/11/14 05:00:10;;;;;;;20.30;17.33;;;;;;;;;;5070711;28;20060;-83
2022/11/14 05:02:36;;;;;;;22.90;16.52;;;;;;;;;;5052953;28;20491;-85
2022/11/14 05:05:03;;;;;;;20.90;16.85;;;;;;;;;;5034931;28;20051;-82
2022/11/14 05:07:29;;;;;;;22.73;17.58;;;;;;;;;;5066527;28;20056;-82
2022/11/14 05:09:55;;;;;;;22.30;17.45;;;;;;;;;;5072836;28;20506;-85
2022/11/14 05:12:21;;;;;;;27.48;17.55;;;;;;;;;;5072712;28;20025;-82
2022/11/14 05:14:48;;;;;;;25.52;19.00;;;;;;;;;;5037192;28;20361;-89
2022/11/14 05:17:15;;;;;;;26.40;17.88;;;;;;;;;;5063018;28;20027;-85
2022/11/14 05:19:41;;;;;;;41.03;28.00;;;;;;;;;;5052614;28;20036;-83
2022/11/14 05:22:07;;;;;;;40.63;27.75;;;;;;;;;;5037846;28;20029;-81
2022/11/14 05:24:33;;;;;;;38.15;27.65;;;;;;;;;;5038577;28;20379;-83
2022/11/14 05:26:59;;;;;;;32.15;23.33;;;;;;;;;;5055878;28;20028;-79
2022/11/14 05:29:25;;;;;;;26.80;20.80;;;;;;;;;;5062155;28;20052;-82
2022/11/14 05:31:51;;;;;;;25.80;19.63;;;;;;;;;;5058744;28;20107;-79
2022/11/14 05:34:18;;;;;;;25.88;19.25;;;;;;;;;;5075903;28;20017;-80
2022/11/14 05:36:44;;;;;;;26.85;18.85;;;;;;;;;;5069355;28;20021;-80
2022/11/14 05:39:10;;;;;;;25.25;18.08;;;;;;;;;;5038116;28;20025;-79
2022/11/14 05:41:36;;;;;;;78.13;55.97;;;;;;;;;;5066075;28;20020;-79
2022/11/14 05:44:03;;;;;;;38.75;27.27;;;;;;;;;;5044340;28;20395;-79
2022/11/14 05:46:30;;;;;;;31.40;18.70;;;;;;;;;;5057384;28;20033;-79
2022/11/14 05:48:56;;;;;;;29.17;21.08;;;;;;;;;;5075556;28;20361;-79
2022/11/14 05:51:22;;;;;;;33.80;26.48;;;;;;;;;;5058663;28;20025;-79
2022/11/14 05:53:48;;;;;;;32.55;26.95;;;;;;;;;;5055364;28;20028;-79
2022/11/14 05:56:14;;;;;;;32.33;27.23;;;;;;;;;;5054787;28;20017;-79
2022/11/14 05:58:40;;;;;;;34.45;25.58;;;;;;;;;;5057024;28;20091;-79
2022/11/14 06:01:13;;;;;;;34.78;26.38;;;;;;;;;;5075088;28;20032;-79
2022/11/14 06:03:41;;;;;;;32.38;28.40;;;;;;;;;;5075089;28;20107;-79
2022/11/14 06:06:09;;;;;;;30.25;25.73;;;;;;;;;;5075051;28;20475;-80
2022/11/14 06:08:36;;;;;;;32.97;25.58;;;;;;;;;;5074890;28;20036;-79
2022/11/14 06:11:03;;;;;;;32.72;23.70;;;;;;;;;;5055610;28;20035;-79
2022/11/14 06:13:29;;;;;;;28.45;22.08;;;;;;;;;;5049957;28;20020;-79
2022/11/14 06:16:02;;;;;;;29.65;22.67;;;;;;;;;;5034213;28;20396;-80
2022/11/14 06:18:29;;;;;;;30.20;22.95;;;;;;;;;;5051110;28;20021;-83
2022/11/14 06:20:59;;;;;;;31.70;23.08;;;;;;;;;;5053501;28;20047;-81
2022/11/14 06:23:25;;;;;;;65.97;45.53;;;;;;;;;;5035020;28;20052;-80
2022/11/14 06:25:51;;;;;;;46.60;35.45;;;;;;;;;;5061512;28;20047;-80
2022/11/14 06:28:17;;;;;;;45.10;34.67;;;;;;;;;;5062262;28;20372;-79
2022/11/14 06:30:43;;;;;;;47.08;32.85;;;;;;;;;;5056233;28;20025;-79
2022/11/14 06:33:10;;;;;;;54.45;41.22;;;;;;;;;;5073317;28;20790;-77
2022/11/14 06:35:36;;;;;;;59.20;43.75;;;;;;;;;;5064440;28;20020;-81
2022/11/14 06:38:03;;;;;;;64.70;44.42;;;;;;;;;;5042912;28;20056;-82
2022/11/14 06:40:29;;;;;;;85.32;58.08;;;;;;;;;;5037677;28;20338;-78
2022/11/14 06:42:55;;;;;;;87.95;58.95;;;;;;;;;;5049517;28;20029;-77
2022/11/14 06:45:21;;;;;;;76.20;47.97;;;;;;;;;;5052983;28;20029;-83
2022/11/14 06:47:47;;;;;;;75.20;47.25;;;;;;;;;;5053187;28;20423;-81
2022/11/14 06:50:13;;;;;;;72.13;42.83;;;;;;;;;;5048922;28;20056;-88
2022/11/14 06:52:40;;;;;;;64.28;39.60;;;;;;;;;;5043301;28;20128;-85
2022/11/14 06:55:09;;;;;;;60.60;37.17;;;;;;;;;;5062945;28;20024;-90
2022/11/14 06:57:35;;;;;;;67.78;41.95;;;;;;;;;;5043256;28;20503;-83
2022/11/14 07:00:01;;;;;;;69.03;43.10;;;;;;;;;;5065722;28;20059;-81
2022/11/14 07:02:27;;;;;;;80.88;59.35;;;;;;;;;;5055542;28;20048;-82
2022/11/14 07:04:53;;;;;;;144.90;116.32;;;;;;;;;;5055255;28;20458;-90
2022/11/14 07:07:20;;;;;;;69.00;48.40;;;;;;;;;;5034331;28;20480;-85
2022/11/14 07:09:46;;;;;;;54.17;41.65;;;;;;;;;;5053904;28;20037;-84
2022/11/14 07:12:18;;;;;;;35.28;26.40;;;;;;;;;;5057344;28;20036;-90
2022/11/14 07:14:44;;;;;;;36.58;27.08;;;;;;;;;;5030067;28;20145;-86
2022/11/14 07:17:10;;;;;;;28.60;20.98;;;;;;;;;;5048205;28;20022;-85
2022/11/14 07:19:37;;;;;;;40.78;23.58;;;;;;;;;;5033633;28;20052;-85
2022/11/14 07:22:03;;;;;;;33.88;20.48;;;;;;;;;;5041830;28;20025;-89
2022/11/14 07:24:29;;;;;;;47.35;27.25;;;;;;;;;;5021662;28;20086;-86
2022/11/14 07:26:55;;;;;;;38.40;23.55;;;;;;;;;;5039215;28;20101;-85
2022/11/14 07:29:21;;;;;;;54.08;28.42;;;;;;;;;;5036882;28;20496;-84
2022/11/14 07:31:47;;;;;;;89.10;37.15;;;;;;;;;;5043191;28;20040;-86
2022/11/14 07:34:13;;;;;;;82.68;36.47;;;;;;;;;;5048219;28;20025;-88
2022/11/14 07:36:40;;;;;;;56.33;27.38;;;;;;;;;;5032662;28;20044;-88
2022/11/14 07:39:06;;;;;;;74.78;32.55;;;;;;;;;;5037408;28;20075;-84
2022/11/14 07:41:32;;;;;;;54.30;28.15;;;;;;;;;;5070532;28;20063;-83
2022/11/14 07:43:58;;;;;;;63.70;29.02;;;;;;;;;;5050924;28;20036;-83
2022/11/14 07:46:24;;;;;;;52.97;27.90;;;;;;;;;;5045526;28;20116;-83
2022/11/14 07:48:50;;;;;;;44.30;24.33;;;;;;;;;;5049543;28;20033;-82
2022/11/14 07:51:17;;;;;;;41.53;24.60;;;;;;;;;;5031727;28;20048;-82
2022/11/14 07:53:44;;;;;;;44.28;26.13;;;;;;;;;;5049587;28;20091;-86
2022/11/14 07:56:10;;;;;;;63.65;30.52;;;;;;;;;;5037828;28;20022;-84
2022/11/14 07:58:40;;;;;;;73.97;31.48;;;;;;;;;;5053550;28;20440;-85
2022/11/14 08:01:07;;;;;;;61.28;29.67;;;;;;;;;;5022831;28;20033;-84
2022/11/14 08:03:33;;;;;;;52.13;26.42;;;;;;;;;;5024012;28;20030;-87
2022/11/14 08:06:03;;;;;;;46.17;25.63;;;;;;;;;;5017839;28;20483;-86
2022/11/14 08:08:29;;;;;;;46.22;24.33;;;;;;;;;;5026317;28;20025;-87
2022/11/14 08:10:56;;;;;;;44.67;23.25;;;;;;;;;;5012073;28;20021;-77
2022/11/14 08:13:23;;;;;;;32.28;20.70;;;;;;;;;;5023488;28;20072;-83
2022/11/14 08:15:49;;;;;;;43.75;23.15;;;;;;;;;;5029090;28;20022;-81
2022/11/14 08:18:15;;;;;;;40.22;22.92;;;;;;;;;;5007445;28;20029;-81
2022/11/14 08:20:42;;;;;;;41.72;22.45;;;;;;;;;;5030453;28;20108;-82
2022/11/14 08:23:12;;;;;;;215.13;73.60;;;;;;;;;;5018911;28;20040;-90
2022/11/14 08:25:45;;;;;;;114.60;49.58;;;;;;;;;;4993937;28;20078;-84
2022/11/14 08:28:11;;;;;;;41.53;23.63;;;;;;;;;;5027102;28;20084;-79
2022/11/14 08:30:38;;;;;;;38.42;22.88;;;;;;;;;;5023728;28;20033;-80
2022/11/14 08:33:04;;;;;;;32.88;20.65;;;;;;;;;;5016229;28;20105;-81
2022/11/14 08:35:32;;;;;;;24.70;18.80;;;;;;;;;;5026746;28;20048;-81
2022/11/14 08:37:58;;;;;;;27.60;18.67;;;;;;;;;;5024530;28;20040;-85
2022/11/14 08:40:24;;;;;;;38.65;27.92;;;;;;;;;;5008141;28;20029;-87
2022/11/14 08:43:08;;;;;;;46.88;24.30;;;;;;;;;;5020157;28;20068;-85
2022/11/14 08:45:55;;;;;;;67.20;35.97;;;;;;;;;;5001942;28;20037;-84
2022/11/14 08:48:22;;;;;;;47.63;25.63;;;;;;;;;;5013990;28;20435;-86
2022/11/14 08:50:48;;;;;;;44.25;24.48;;;;;;;;;;5018039;28;20455;-81
2022/11/14 08:53:14;;;;;;;38.17;22.17;;;;;;;;;;5030346;28;20029;-83
2022/11/14 08:55:44;;;;;;;33.92;21.60;;;;;;;;;;5036950;28;20045;-83
2022/11/14 08:58:10;;;;;;;28.35;20.05;;;;;;;;;;5012316;28;20106;-82
2022/11/14 09:00:39;;;;;;;27.70;19.38;;;;;;;;;;5043039;28;20049;-84
2022/11/14 09:03:09;;;;;;;29.17;19.42;;;;;;;;;;5034663;28;20760;-85
2022/11/14 09:05:45;;;;;;;24.40;19.80;;;;;;;;;;5036259;28;20041;-86
2022/11/14 09:08:30;;;;;;;26.48;17.88;;;;;;;;;;5032723;28;20064;-82
2022/11/14 09:10:59;;;;;;;22.45;17.05;;;;;;;;;;5045221;28;20033;-80
2022/11/14 09:13:26;;;;;;;23.67;18.15;;;;;;;;;;5037627;28;20020;-81
2022/11/14 09:15:52;;;;;;;23.20;16.63;;;;;;;;;;5047821;28;20112;-83
2022/11/14 09:18:18;;;;;;;40.08;27.38;;;;;;;;;;5050061;28;20021;-86
2022/11/14 09:20:45;;;;;;;28.40;19.35;;;;;;;;;;5050325;28;20044;-83
2022/11/14 09:23:11;;;;;;;27.02;17.23;;;;;;;;;;5032684;28;20032;-84
2022/11/14 09:25:37;;;;;;;25.65;19.20;;;;;;;;;;5021968;28;20051;-83
2022/11/14 09:28:04;;;;;;;33.38;20.25;;;;;;;;;;5040434;28;20021;-84
2022/11/14 09:30:30;;;;;;;33.53;25.90;;;;;;;;;;5041517;28;20159;-83
2022/11/14 09:33:00;;;;;;;21.30;17.30;;;;;;;;;;5037428;28;20079;-81
2022/11/14 09:35:38;;;;;;;76.93;37.15;;;;;;;;;;5044890;28;20026;-91
2022/11/14 09:38:17;;;;;;;43.88;26.05;;;;;;;;;;5016666;28;20396;-85
2022/11/14 09:41:02;;;;;;;35.35;21.25;;;;;;;;;;5035013;28;20399;-85
2022/11/14 09:43:28;;;;;;;22.50;16.58;;;;;;;;;;5043598;28;20068;-86
2022/11/14 09:45:55;;;;;;;23.67;16.48;;;;;;;;;;5038473;28;20037;-79
2022/11/14 09:48:24;;;;;;;21.83;16.83;;;;;;;;;;5032869;28;20029;-81
2022/11/14 09:51:03;;;;;;;24.65;17.27;;;;;;;;;;5060972;28;20061;-81
2022/11/14 09:53:30;;;;;;;33.20;21.65;;;;;;;;;;5043584;28;20786;-83
2022/11/14 09:55:57;;;;;;;39.17;21.73;;;;;;;;;;5045954;28;20510;-81
2022/11/14 09:58:23;;;;;;;71.95;34.08;;;;;;;;;;5049190;28;22128;-84
2022/11/14 10:01:08;;;;;;;58.95;30.98;;;;;;;;;;5028546;28;20362;-89
2022/11/14 10:03:45;;;;;;;49.33;26.92;;;;;;;;;;5040529;28;20107;-83
2022/11/14 10:06:30;;;;;;;51.65;26.55;;;;;;;;;;5034342;28;20033;-89
2022/11/14 10:08:56;;;;;;;;;;;;;;;;;;5045236;28;20365;-87
2022/11/14 10:11:35;;;;;;;29.27;18.95;;;;;;;;;;5017185;28;20455;-89
2022/11/14 10:14:20;;;;;;;27.20;18.30;;;;;;;;;;5029530;28;20039;-86
2022/11/14 10:16:46;;;;;;;;;;;;;;;;;;5017547;28;20021;-89
2022/11/14 10:19:18;;;;;;;21.63;15.70;;;;;;;;;;5022590;28;19920;-86
2022/11/14 10:21:56;;;;;;;22.27;16.15;;;;;;;;;;5043043;28;20027;-91
2022/11/14 10:24:25;;;;;;;18.70;14.85;;;;;;;;;;5051684;28;20448;-85
2022/11/14 10:27:05;;;;;;;22.58;14.35;;;;;;;;;;5033952;28;20033;-92
2022/11/14 10:29:31;;;;;;;29.70;22.30;;;;;;;;;;5034868;28;20032;-88
2022/11/14 10:32:30;;;;;;;19.38;15.13;;;;;;;;;;5060472;28;20115;-89
2022/11/14 10:35:03;;;;;;;19.38;14.35;;;;;;;;;;5022793;28;20037;-86
2022/11/14 10:37:33;;;;;;;17.65;13.70;;;;;;;;;;5053257;28;20415;-86
2022/11/14 10:40:20;;;;;;;19.58;13.68;;;;;;;;;;5039780;28;20036;-85
2022/11/14 10:42:51;;;;;;;15.25;13.55;;;;;;;;;;5046401;28;20169;-89
2022/11/14 10:45:37;;;;;;;62.40;49.70;;;;;;;;;;5032936;28;20047;-81
2022/11/14 10:48:17;;;;;;;19.73;17.02;;;;;;;;;;5042761;28;20028;-83
2022/11/14 10:51:06;;;;;;;17.67;13.90;;;;;;;;;;5040643;28;20028;-83
2022/11/14 10:53:51;;;;;;;15.93;13.35;;;;;;;;;;5043572;28;20088;-80
2022/11/14 10:56:17;;;;;;;17.85;13.73;;;;;;;;;;5031290;28;20033;-83
2022/11/14 10:58:44;;;;;;;17.40;14.15;;;;;;;;;;5026552;28;20495;-80
2022/11/14 11:01:28;;;;;;;16.83;14.02;;;;;;;;;;5043177;28;20025;-84
2022/11/14 11:03:54;;;;;;;;;;;;;;;;;;5024279;28;20031;-82
2022/11/14 11:06:39;;;;;;;15.48;12.93;;;;;;;;;;5042137;28;20019;-82
2022/11/14 11:11:57;;;;;;;14.85;12.25;;;;;;;;;;5044968;28;20112;-79
2022/11/14 11:14:24;;;;;;;17.23;13.30;;;;;;;;;;5047120;28;20523;-80
2022/11/14 11:17:06;;;;;;;16.67;13.95;;;;;;;;;;5047477;28;20484;-79
2022/11/14 11:19:32;;;;;;;19.67;13.75;;;;;;;;;;5036537;28;20086;-80
2022/11/14 11:21:59;;;;;;;20.05;15.73;;;;;;;;;;5048814;28;20112;-81
2022/11/14 11:24:35;;;;;;;18.35;14.88;;;;;;;;;;5050908;28;20025;-80
2022/11/14 11:27:19;;;;;;;18.60;13.95;;;;;;;;;;5035078;28;20044;-82
2022/11/14 11:29:46;;;;;;;14.75;12.35;;;;;;;;;;5041032;28;20038;-83
2022/11/14 11:32:29;;;;;;;16.75;13.07;;;;;;;;;;5036416;28;20029;-84
2022/11/14 11:34:56;;;;;;;16.48;13.00;;;;;;;;;;5054601;28;20026;-86
2022/11/14 11:37:24;;;;;;;14.48;12.20;;;;;;;;;;5033625;28;20170;-84
2022/11/14 11:39:54;;;;;;;17.05;13.50;;;;;;;;;;5050270;28;20565;-82
2022/11/14 11:42:53;;;;;;;17.25;12.65;;;;;;;;;;5048801;28;20033;-83
2022/11/14 11:45:19;;;;;;;19.40;12.90;;;;;;;;;;5009347;28;20052;-80
2022/11/14 11:48:03;;;;;;;16.25;13.60;;;;;;;;;;5040368;28;20097;-79
2022/11/14 11:50:29;;;;;;;19.63;13.73;;;;;;;;;;5045789;28;20134;-83
2022/11/14 11:52:59;;;;;;;16.15;12.20;;;;;;;;;;5026616;28;20052;-83
2022/11/14 11:55:26;;;;;;;19.90;14.20;;;;;;;;;;5045305;28;20755;-82
2022/11/14 11:58:11;;;;;;;21.15;15.30;;;;;;;;;;5020144;28;20036;-81
2022/11/14 12:00:37;;;;;;;18.48;13.60;;;;;;;;;;5044245;28;20053;-80
2022/11/14 12:03:04;;;;;;;16.45;13.20;;;;;;;;;;5046271;28;20033;-81
2022/11/14 12:05:43;;;;;;;19.02;12.85;;;;;;;;;;5051529;28;20438;-84
2022/11/14 12:08:13;;;;;;;17.63;13.02;;;;;;;;;;5031207;28;20124;-80
2022/11/14 12:10:41;;;;;;;19.02;13.18;;;;;;;;;;5042088;28;20036;-82
2022/11/14 12:13:24;;;;;;;17.92;12.75;;;;;;;;;;5045315;28;20488;-81
2022/11/14 12:16:09;;;;;;;15.60;13.25;;;;;;;;;;5048866;28;20029;-83
2022/11/14 12:18:35;;;;;;;82.65;33.25;;;;;;;;;;5046671;28;20047;-82
2022/11/14 12:21:20;;;;;;;39.78;20.95;;;;;;;;;;5035293;28;20432;-84
2022/11/14 12:23:46;;;;;;;;;;;;;;;;;;5031396;28;20128;-87
2022/11/14 12:26:18;;;;;;;85.32;33.83;;;;;;;;;;5028623;28;19976;-88
2022/11/14 12:28:57;;;;;;;117.85;42.55;;;;;;;;;;5051512;28;20115;-83
2022/11/14 12:31:25;;;;;;;23.90;15.52;;;;;;;;;;5051972;28;20017;-81
2022/11/14 12:33:55;;;;;;;36.92;21.80;;;;;;;;;;5059148;28;20100;-82
2022/11/14 12:36:27;;;;;;;34.53;21.20;;;;;;;;;;5052851;28;20029;-79
2022/11/14 12:38:54;;;;;;;60.72;27.75;;;;;;;;;;5049192;28;20484;-83
2022/11/14 12:41:26;;;;;;;177.50;66.22;;;;;;;;;;5035394;28;20044;-87
2022/11/14 12:43:52;;;;;;;111.70;46.20;;;;;;;;;;5053166;28;20570;-88
2022/11/14 12:46:18;;;;;;;52.45;26.10;;;;;;;;;;5037437;28;20043;-84
2022/11/14 12:48:45;;;;;;;50.53;25.33;;;;;;;;;;5053115;28;20033;-86
2022/11/14 12:51:30;;;;;;;30.13;18.25;;;;;;;;;;5036766;28;20033;-88
2022/11/14 12:53:56;;;;;;;;;;;;;;;;;;5057149;28;20508;-80
2022/11/14 12:56:25;;;;;;;34.63;19.95;;;;;;;;;;5056310;28;19909;-85
2022/11/14 12:59:10;;;;;;;37.80;22.95;;;;;;;;;;5048338;28;20395;-80
2022/11/14 13:01:51;;;;;;;26.77;16.85;;;;;;;;;;5032882;28;20113;-80
2022/11/14 13:04:36;;;;;;;17.48;13.00;;;;;;;;;;5034401;28;20469;-81
2022/11/14 13:07:02;;;;;;;;;;;;;;;;;;5040609;28;20239;-79
2022/11/14 13:09:38;;;;;;;20.35;12.35;;;;;;;;;;5034592;28;19983;-82
2022/11/14 13:23:54;;;;;;;13.73;10.17;;;;;;;;;;5029104;28;19920;-85
2022/11/14 13:26:20;;;;;;;23.52;13.30;;;;;;;;;;5015350;28;20034;-80
2022/11/14 13:28:48;;;;;;;14.82;10.85;;;;;;;;;;5035795;28;20358;-80
2022/11/14 13:31:14;;;;;;;22.38;15.88;;;;;;;;;;5030103;28;20021;-83
2022/11/14 13:33:42;;;;;;;20.35;12.70;;;;;;;;;;5034319;28;20033;-83
2022/11/14 13:36:15;;;;;;;12.18;9.98;;;;;;;;;;5030606;28;20025;-82
2022/11/14 13:38:41;;;;;;;11.57;9.95;;;;;;;;;;5035772;28;20389;-83
2022/11/14 13:41:13;;;;;;;11.20;9.88;;;;;;;;;;5041559;28;20153;-83
2022/11/14 13:43:57;;;;;;;14.43;11.18;;;;;;;;;;5042646;28;20571;-79
2022/11/14 13:46:33;;;;;;;14.60;11.60;;;;;;;;;;5030237;28;20037;-82
2022/11/14 13:48:59;;;;;;;12.77;10.20;;;;;;;;;;5032257;28;20026;-83
2022/11/14 13:51:26;;;;;;;18.90;11.52;;;;;;;;;;5039474;28;21436;-82
2022/11/14 13:53:52;;;;;;;18.27;12.07;;;;;;;;;;5013433;28;20495;-85
2022/11/14 13:56:18;;;;;;;16.25;12.10;;;;;;;;;;5032508;28;20029;-81
2022/11/14 13:59:03;;;;;;;16.00;12.50;;;;;;;;;;5041011;28;20052;-84
2022/11/14 14:01:29;;;;;;;11.63;10.27;;;;;;;;;;5039623;28;20033;-82
2022/11/14 14:03:55;;;;;;;13.07;10.38;;;;;;;;;;5068237;28;20022;-82
2022/11/14 14:06:40;;;;;;;15.40;11.68;;;;;;;;;;5053601;28;20065;-82
2022/11/14 14:09:06;;;;;;;;;;;;;;;;;;5054492;28;20021;-81
2022/11/14 14:11:37;;;;;;;12.75;10.05;;;;;;;;;;5053557;28;19905;-83
2022/11/14 14:14:12;;;;;;;19.23;12.43;;;;;;;;;;5053807;28;20017;-80
2022/11/14 14:16:57;;;;;;;16.85;12.23;;;;;;;;;;5053991;28;20096;-81
2022/11/14 14:19:26;;;;;;;17.63;13.98;;;;;;;;;;5053621;28;20032;-83
2022/11/14 14:21:58;;;;;;;26.58;16.40;;;;;;;;;;5047281;28;20052;-84
2022/11/14 14:24:27;;;;;;;19.58;13.88;;;;;;;;;;5053238;28;20028;-80
2022/11/14 14:27:00;;;;;;;22.75;14.05;;;;;;;;;;5053196;28;20112;-82
2022/11/14 14:29:35;;;;;;;28.67;15.90;;;;;;;;;;5048711;28;20029;-80
2022/11/14 14:32:18;;;;;;;14.93;11.05;;;;;;;;;;5052933;28;20100;-81
2022/11/14 14:34:44;;;;;;;18.10;11.32;;;;;;;;;;5035258;28;20456;-80
2022/11/14 14:37:25;;;;;;;20.15;13.18;;;;;;;;;;5053160;28;20032;-81
2022/11/14 14:39:57;;;;;;;14.68;9.68;;;;;;;;;;5053385;28;20021;-81
2022/11/14 14:42:23;;;;;;;35.33;18.00;;;;;;;;;;5053306;28;20021;-81
2022/11/14 14:44:50;;;;;;;16.05;10.55;;;;;;;;;;5052540;28;20369;-81